createdAt,value
2019-02-16T00:01:42.166Z,82.94
2019-02-16T00:30:17.411Z,85.97
2019-02-16T00:58:57.265Z,85.03
2019-02-16T01:27:26.849Z,85.36
2019-02-16T01:56:05.033Z,86.39
2019-02-16T02:24:39.867Z,86.31
2019-02-16T02:53:14.078Z,87.53
2019-02-16T03:21:50.183Z,85.43
2019-02-16T03:50:24.649Z,85.59
2019-02-16T04:18:58.380Z,85.47
2019-02-16T04:47:32.397Z,85.3
2019-02-16T05:16:04.804Z,85.37
2019-02-16T05:44:43.703Z,86.27
2019-02-16T06:13:15.394Z,85.41
2019-02-16T06:41:48.349Z,86.24
2019-02-16T07:10:23.516Z,86.65
2019-02-16T07:39:17.149Z,82.79
2019-02-16T08:07:52.834Z,82.17
2019-02-16T08:36:40.470Z,79.71
2019-02-16T09:05:20.952Z,76.63
2019-02-16T09:34:08.219Z,70.83
2019-02-16T10:02:56.086Z,68.15
2019-02-16T10:31:42.511Z,62.79
2019-02-16T11:00:35.651Z,62.9
2019-02-16T11:29:27.198Z,53.67
2019-02-16T11:58:15.590Z,47.17
2019-02-16T12:26:57.093Z,42.33
2019-02-16T12:55:47.194Z,39.45
2019-02-16T13:24:13.360Z,34.41
2019-02-16T13:52:55.339Z,37.64
2019-02-16T14:21:33.613Z,29.58
2019-02-16T14:50:13.237Z,32.65
2019-02-16T15:18:49.879Z,33.32
2019-02-16T15:47:25.534Z,38.12
2019-02-16T16:15:57.105Z,40.53
2019-02-16T16:44:30.074Z,42.32
2019-02-16T17:13:00.110Z,45.6
2019-02-16T17:41:31.032Z,49.25
2019-02-16T18:10:03.426Z,50.93
2019-02-16T18:38:38.348Z,54.42
2019-02-16T19:07:09.272Z,58.66
2019-02-16T19:35:43.407Z,60.74
2019-02-16T20:04:17.948Z,62.53
2019-02-16T20:32:46.771Z,64.89
2019-02-16T21:01:21.219Z,69.35
2019-02-16T21:29:58.901Z,68.48
2019-02-16T21:58:31.302Z,69.53
2019-02-16T22:27:06.136Z,72.27
2019-02-16T22:55:43.110Z,74.89
2019-02-16T23:24:18.653Z,76.88
2019-02-16T23:52:55.189Z,77.24
